Time;durP1;ratioP1;P1;durP2;ratioP2;P2;SDS_P1;SDS_P2;PMS_P1;PMS_P2;Temp;Humidity;BMP_temperature;BMP_pressure;BME280_temperature;BME280_humidity;BME280_pressure;Samples;Min_cycle;Max_cycle;Signal;HPM_P1;HPM_P2
2024/03/30 00:01:08;;;;;;;;;;;;;;;18.74;41.31;99663.72;5073486;28;19913;-81
2024/03/30 00:03:33;;;;;;;;;;;;;;;18.69;41.29;99669.75;5073246;28;19927;-81
2024/03/30 00:06:02;;;;;;;;;;;;;;;18.66;41.36;99669.38;5073171;28;19942;-80
2024/03/30 00:08:28;;;;;;;;;;;;;;;18.60;41.38;99675.63;5073215;28;20402;-80
2024/03/30 00:10:57;;;;;;;;;;;;;;;18.56;41.22;99688.59;5073000;28;19916;-80
2024/03/30 00:13:23;;;;;;;;;;;;;;;18.52;41.25;99671.38;5073061;28;19987;-80
2024/03/30 00:15:48;;;;;;;;;;;;;;;18.49;41.31;99669.16;5073172;28;20424;-80
2024/03/30 00:18:13;;;;;;;;;;;;;;;18.42;41.48;99677.25;5073073;28;20363;-80
2024/03/30 00:20:39;;;;;;;;;;;;;;;18.43;41.56;99672.72;5072999;28;19912;-80
2024/03/30 00:23:04;;;;;;;;;;;;;;;18.38;41.69;99673.41;5073103;28;19962;-80
2024/03/30 00:25:30;;;;;;;;;;;;;;;18.35;41.67;99667.69;5073168;28;19920;-81
2024/03/30 00:27:55;;;;;;;;;;;;;;;18.34;41.80;99672.22;5071628;28;20381;-80
2024/03/30 00:30:20;;;;;;;;;;;;;;;18.31;41.65;99678.03;5072439;28;19916;-79
2024/03/30 00:32:48;;;;;;;;;;;;;;;18.28;41.99;99673.13;5072756;28;19920;-81
2024/03/30 00:35:14;;;;;;;;;;;;;;;18.26;42.10;99671.72;5072783;28;20285;-81
2024/03/30 00:37:39;;;;;;;;;;;;;;;18.25;42.10;99678.09;5072721;28;19912;-81
2024/03/30 00:40:05;;;;;;;;;;;;;;;18.24;42.03;99673.81;5071559;28;19904;-80
2024/03/30 00:42:30;;;;;;;;;;;;;;;18.19;42.31;99668.31;5072878;28;19945;-81
2024/03/30 00:44:56;;;;;;;;;;;;;;;18.20;42.21;99665.41;5072597;28;19919;-81
2024/03/30 00:47:21;;;;;;;;;;;;;;;18.18;42.12;99672.84;5072281;28;19943;-80
2024/03/30 00:49:46;;;;;;;;;;;;;;;18.13;42.35;99671.88;5071170;28;20391;-79
2024/03/30 00:52:11;;;;;;;;;;;;;;;18.12;42.50;99664.91;5072595;28;19916;-80
2024/03/30 00:54:37;;;;;;;;;;;;;;;18.12;42.29;99663.06;5072037;28;20392;-80
2024/03/30 00:57:02;;;;;;;;;;;;;;;18.09;42.67;99664.31;5073068;28;19912;-79
2024/03/30 00:59:27;;;;;;;;;;;;;;;18.06;42.74;99658.59;5072206;28;19962;-79
2024/03/30 01:01:52;;;;;;;;;;;;;;;18.08;42.12;99662.69;5072287;28;19912;-81
2024/03/30 01:04:18;;;;;;;;;;;;;;;18.07;42.32;99657.56;5070789;28;20408;-81
2024/03/30 01:06:43;;;;;;;;;;;;;;;18.05;42.77;99659.63;5071923;28;19958;-81
2024/03/30 01:09:09;;;;;;;;;;;;;;;17.98;43.23;99662.38;5070767;28;20372;-81
2024/03/30 01:11:36;;;;;;;;;;;;;;;17.98;42.79;99661.56;5072110;28;19970;-81
2024/03/30 01:14:01;;;;;;;;;;;;;;;17.97;42.34;99655.41;5072378;28;20007;-81
2024/03/30 01:16:28;;;;;;;;;;;;;;;17.93;42.57;99661.44;5070885;28;20377;-81
2024/03/30 01:18:53;;;;;;;;;;;;;;;17.92;43.01;99670.47;5072052;28;19918;-80
2024/03/30 01:21:18;;;;;;;;;;;;;;;17.90;42.72;99664.53;5071005;28;19919;-80
2024/03/30 01:23:44;;;;;;;;;;;;;;;17.88;43.09;99666.63;5070896;28;19985;-81
2024/03/30 01:26:11;;;;;;;;;;;;;;;17.85;43.80;99667.88;5070723;28;19995;-81
2024/03/30 01:28:36;;;;;;;;;;;;;;;17.85;43.49;99665.22;5087514;28;20448;-80
2024/03/30 01:31:02;;;;;;;;;;;;;;;17.85;43.28;99672.41;5071990;28;20014;-81
2024/03/30 01:33:27;;;;;;;;;;;;;;;17.84;43.26;99676.13;5071852;28;20304;-80
2024/03/30 01:35:53;;;;;;;;;;;;;;;17.81;43.63;99679.19;5071960;28;19981;-80
2024/03/30 01:38:20;;;;;;;;;;;;;;;17.79;43.67;99685.56;5072118;28;19912;-81
2024/03/30 01:40:45;;;;;;;;;;;;;;;17.75;43.37;99692.41;5071876;28;19919;-80
2024/03/30 01:43:10;;;;;;;;;;;;;;;17.68;43.34;99682.81;5071895;28;19912;-81
2024/03/30 01:45:38;;;;;;;;;;;;;;;17.64;43.35;99682.41;5070570;28;20374;-81
2024/03/30 01:48:05;;;;;;;;;;;;;;;17.54;43.69;99687.44;5071870;28;19920;-80
2024/03/30 01:50:31;;;;;;;;;;;;;;;17.51;43.64;99695.88;5071749;28;19974;-80
2024/03/30 01:52:58;;;;;;;;;;;;;;;17.47;43.54;99694.69;5071660;28;19920;-80
2024/03/30 01:55:23;;;;;;;;;;;;;;;17.35;43.17;99688.44;5071823;28;19978;-80
2024/03/30 01:57:50;;;;;;;;;;;;;;;17.22;43.54;99689.38;5071898;28;19908;-81
2024/03/30 02:00:15;;;;;;;;;;;;;;;17.12;43.87;99695.19;5071666;28;20343;-81
2024/03/30 02:02:41;;;;;;;;;;;;;;;17.12;43.90;99691.69;5071641;28;20007;-81
2024/03/30 02:05:07;;;;;;;;;;;;;;;17.08;44.25;99690.47;5072655;28;19959;-81
2024/03/30 02:07:32;;;;;;;;;;;;;;;17.00;44.74;99688.06;5091403;28;19952;-81
2024/03/30 02:09:58;;;;;;;;;;;;;;;16.95;44.35;99694.03;5075672;28;19916;-81
2024/03/30 02:12:24;;;;;;;;;;;;;;;16.96;44.94;99698.34;5074191;28;19963;-81
2024/03/30 02:14:49;;;;;;;;;;;;;;;16.96;45.22;99689.53;5076130;28;19916;-81
2024/03/30 02:17:14;;;;;;;;;;;;;;;17.01;44.57;99701.19;5075088;28;19948;-80
2024/03/30 02:19:49;;;;;;;;;;;;;;;17.02;44.74;99700.16;5075391;28;19952;-81
2024/03/30 02:22:18;;;;;;;;;;;;;;;17.02;45.04;99696.66;5090880;28;19913;-81
2024/03/30 02:24:44;;;;;;;;;;;;;;;17.01;45.04;99698.53;5075144;28;19987;-80
2024/03/30 02:27:09;;;;;;;;;;;;;;;17.00;44.26;99698.75;5073597;28;19951;-81
2024/03/30 02:29:35;;;;;;;;;;;;;;;16.95;44.36;99696.72;5075013;28;20308;-80
2024/03/30 02:32:01;;;;;;;;;;;;;;;16.93;44.15;99698.78;5075359;28;19923;-81
2024/03/30 02:34:27;;;;;;;;;;;;;;;16.83;44.30;99698.44;5075016;28;20403;-81
2024/03/30 02:36:52;;;;;;;;;;;;;;;16.69;44.77;99700.38;5090443;28;19913;-81
2024/03/30 02:39:17;;;;;;;;;;;;;;;16.66;44.82;99703.47;5074802;28;19919;-81
2024/03/30 02:41:43;;;;;;;;;;;;;;;16.60;44.48;99692.81;5074816;28;19916;-81
2024/03/30 02:44:08;;;;;;;;;;;;;;;16.57;44.33;99698.56;5073603;28;20452;-79
2024/03/30 02:46:33;;;;;;;;;;;;;;;16.51;44.60;99694.91;5074764;28;19918;-80
2024/03/30 02:48:58;;;;;;;;;;;;;;;16.51;44.53;99705.56;5074846;28;20281;-80
2024/03/30 02:51:24;;;;;;;;;;;;;;;16.49;44.63;99713.75;5074630;28;19920;-81
2024/03/30 02:53:49;;;;;;;;;;;;;;;16.45;45.02;99714.41;5073489;28;19959;-80
2024/03/30 02:56:14;;;;;;;;;;;;;;;16.42;45.02;99714.81;5074575;28;19913;-79
2024/03/30 02:58:39;;;;;;;;;;;;;;;16.36;45.49;99719.16;5073392;28;19913;-81
2024/03/30 03:01:05;;;;;;;;;;;;;;;16.36;45.26;99710.34;5073343;28;19970;-81
2024/03/30 03:03:30;;;;;;;;;;;;;;;16.36;45.15;99713.81;5074313;28;19921;-81
2024/03/30 03:05:55;;;;;;;;;;;;;;;16.33;45.64;99708.88;5074365;28;19912;-81
2024/03/30 03:08:24;;;;;;;;;;;;;;;16.31;45.86;99715.47;5074111;28;19980;-81
2024/03/30 03:10:49;;;;;;;;;;;;;;;16.30;45.64;99708.50;5090135;28;19928;-81
2024/03/30 03:13:17;;;;;;;;;;;;;;;16.32;45.29;99720.56;5074104;28;19912;-81
2024/03/30 03:15:42;;;;;;;;;;;;;;;16.32;45.49;99717.91;5074084;28;19913;-81
2024/03/30 03:18:07;;;;;;;;;;;;;;;16.24;45.58;99709.34;5071916;28;20384;-80
2024/03/30 03:20:33;;;;;;;;;;;;;;;16.23;45.30;99711.19;5074123;28;19912;-80
2024/03/30 03:22:58;;;;;;;;;;;;;;;16.24;45.20;99715.47;5074378;28;19913;-81
2024/03/30 03:25:23;;;;;;;;;;;;;;;16.23;45.47;99715.69;5072830;28;19912;-80
2024/03/30 03:27:48;;;;;;;;;;;;;;;16.21;45.27;99718.56;5074197;28;20368;-80
2024/03/30 03:30:14;;;;;;;;;;;;;;;16.19;45.58;99723.28;5074325;28;19912;-80
2024/03/30 03:32:39;;;;;;;;;;;;;;;16.16;46.07;99726.38;5074043;28;19916;-82
2024/03/30 03:35:04;;;;;;;;;;;;;;;16.12;45.83;99730.47;5074161;28;19960;-81
2024/03/30 03:37:29;;;;;;;;;;;;;;;16.13;46.55;99732.13;5072525;28;19920;-81
2024/03/30 03:39:55;;;;;;;;;;;;;;;16.13;45.96;99734.78;5073978;28;20025;-80
2024/03/30 03:42:20;;;;;;;;;;;;;;;16.06;46.46;99737.47;5073569;28;19912;-80
2024/03/30 03:44:45;;;;;;;;;;;;;;;15.85;46.93;99743.03;5089264;28;19912;-81
2024/03/30 03:47:11;;;;;;;;;;;;;;;15.81;47.12;99747.13;5072296;28;19966;-82
2024/03/30 03:49:36;;;;;;;;;;;;;;;15.76;46.88;99753.09;5073512;28;19917;-81
2024/03/30 03:52:01;;;;;;;;;;;;;;;15.69;46.99;99748.78;5073549;28;19916;-81
2024/03/30 03:54:26;;;;;;;;;;;;;;;15.62;48.33;99756.78;5073518;28;20404;-81
2024/03/30 03:56:52;;;;;;;;;;;;;;;15.55;47.90;99742.59;5072473;28;19913;-79
2024/03/30 03:59:17;;;;;;;;;;;;;;;15.53;47.81;99741.97;5073449;28;20007;-80
2024/03/30 04:01:42;;;;;;;;;;;;;;;15.52;48.51;99751.00;5073588;28;19913;-80
2024/03/30 04:04:07;;;;;;;;;;;;;;;15.50;48.83;99753.84;5073224;28;19921;-81
2024/03/30 04:06:33;;;;;;;;;;;;;;;15.47;48.33;99748.94;5073212;28;20305;-81
2024/03/30 04:08:58;;;;;;;;;;;;;;;15.48;48.24;99750.56;5073278;28;19970;-81
2024/03/30 04:11:23;;;;;;;;;;;;;;;15.45;47.53;99750.16;5073132;28;20389;-81
2024/03/30 04:13:49;;;;;;;;;;;;;;;15.38;49.01;99738.72;5071988;28;19987;-79
2024/03/30 04:16:15;;;;;;;;;;;;;;;15.37;49.20;99759.16;5071721;28;19916;-81
2024/03/30 04:18:41;;;;;;;;;;;;;;;15.38;49.02;99758.16;5072837;28;20511;-81
2024/03/30 04:21:06;;;;;;;;;;;;;;;15.37;49.05;99769.00;5071796;28;19956;-81
2024/03/30 04:23:32;;;;;;;;;;;;;;;15.39;49.04;99765.09;5071673;28;19942;-81
2024/03/30 04:26:04;;;;;;;;;;;;;;;15.35;48.72;99763.06;5072674;28;20490;-82
2024/03/30 04:28:30;;;;;;;;;;;;;;;15.32;49.42;99766.94;5088098;28;19974;-81
2024/03/30 04:30:58;;;;;;;;;;;;;;;15.32;49.33;99776.78;5072685;28;19920;-81
2024/03/30 04:33:24;;;;;;;;;;;;;;;15.34;49.41;99772.88;5072915;28;20385;-81
2024/03/30 04:35:57;;;;;;;;;;;;;;;15.33;48.96;99778.41;5073155;28;19920;-80
2024/03/30 04:38:26;;;;;;;;;;;;;;;15.30;48.73;99776.97;5072777;28;19919;-81
2024/03/30 04:40:58;;;;;;;;;;;;;;;15.26;48.52;99771.25;5072833;28;19991;-81
2024/03/30 04:43:24;;;;;;;;;;;;;;;15.21;50.00;99771.03;5072679;28;19923;-81
2024/03/30 04:45:49;;;;;;;;;;;;;;;15.13;49.16;99767.75;5071183;28;19916;-81
2024/03/30 04:48:15;;;;;;;;;;;;;;;15.04;49.38;99766.28;5072450;28;20305;-81
2024/03/30 04:50:40;;;;;;;;;;;;;;;15.02;48.54;99758.50;5071669;28;19920;-81
2024/03/30 04:53:05;;;;;;;;;;;;;;;15.02;48.12;99760.34;5073129;28;19952;-81
2024/03/30 04:55:30;;;;;;;;;;;;;;;15.03;48.10;99762.00;5072187;28;19912;-81
2024/03/30 04:57:56;;;;;;;;;;;;;;;15.00;49.65;99768.53;5072350;28;19920;-80
2024/03/30 05:00:21;;;;;;;;;;;;;;;15.02;48.33;99761.16;5071095;28;20481;-81
2024/03/30 05:02:46;;;;;;;;;;;;;;;15.06;47.93;99767.72;5072223;28;19920;-80
2024/03/30 05:05:11;;;;;;;;;;;;;;;15.07;48.36;99766.72;5087833;28;19912;-80
2024/03/30 05:07:37;;;;;;;;;;;;;;;15.12;49.09;99771.41;5072209;28;20396;-80
2024/03/30 05:10:02;;;;;;;;;;;;;;;15.15;49.29;99768.34;5072348;28;19904;-81
2024/03/30 05:12:27;;;;;;;;;;;;;;;15.19;49.08;99766.94;5072231;28;19917;-81
2024/03/30 05:14:52;;;;;;;;;;;;;;;15.24;48.68;99773.28;5072288;28;19913;-81
2024/03/30 05:17:18;;;;;;;;;;;;;;;15.29;47.85;99775.34;5072203;28;20396;-80
2024/03/30 05:22:27;;;;;;;;;;;;;;;15.38;48.64;99771.44;5072498;28;19919;-81
2024/03/30 05:24:52;;;;;;;;;;;;;;;15.42;49.06;99763.88;5070825;28;19912;-81
2024/03/30 05:27:17;;;;;;;;;;;;;;;15.49;48.37;99767.38;5072201;28;19920;-81
2024/03/30 05:29:43;;;;;;;;;;;;;;;15.53;48.20;99768.59;5070587;28;20340;-81
2024/03/30 05:32:08;;;;;;;;;;;;;;;15.61;48.31;99770.28;5072143;28;19931;-81
2024/03/30 05:34:33;;;;;;;;;;;;;;;15.65;48.08;99764.34;5071954;28;19913;-81
2024/03/30 05:36:58;;;;;;;;;;;;;;;15.66;47.89;99765.16;5070711;28;20510;-81
2024/03/30 05:39:24;;;;;;;;;;;;;;;15.73;48.19;99772.13;5071900;28;19970;-81
2024/03/30 05:41:49;;;;;;;;;;;;;;;15.80;48.92;99772.13;5091496;28;19951;-79
2024/03/30 05:44:14;;;;;;;;;;;;;;;15.81;48.81;99771.09;5075903;28;19913;-80
2024/03/30 05:46:39;;;;;;;;;;;;;;;15.89;49.06;99774.38;5075857;28;19912;-81
2024/03/30 05:49:04;;;;;;;;;;;;;;;16.01;49.21;99773.75;5076071;28;20317;-81
2024/03/30 05:51:30;;;;;;;;;;;;;;;16.08;49.95;99762.03;5075896;28;19975;-81
2024/03/30 05:53:55;;;;;;;;;;;;;;;16.14;49.98;99765.72;5075915;28;19919;-81
2024/03/30 05:56:20;;;;;;;;;;;;;;;16.20;48.54;99765.69;5075676;28;19962;-81
2024/03/30 05:58:46;;;;;;;;;;;;;;;16.28;48.75;99771.81;5074483;28;19919;-81
2024/03/30 06:01:12;;;;;;;;;;;;;;;16.31;47.83;99758.09;5074306;28;19912;-81
2024/03/30 06:03:37;;;;;;;;;;;;;;;16.40;49.30;99772.84;5075403;28;19956;-81
2024/03/30 06:06:02;;;;;;;;;;;;;;;16.44;48.79;99766.88;5075967;28;19982;-81
2024/03/30 06:08:27;;;;;;;;;;;;;;;16.55;47.33;99773.41;5075868;28;19920;-80
2024/03/30 06:10:53;;;;;;;;;;;;;;;16.61;47.76;99771.75;5076391;28;19923;-81
2024/03/30 06:13:18;;;;;;;;;;;;;;;16.65;48.68;99772.97;5075073;28;20514;-81
2024/03/30 06:15:43;;;;;;;;;;;;;;;16.72;48.39;99773.78;5075217;28;19916;-81
2024/03/30 06:18:09;;;;;;;;;;;;;;;16.84;48.59;99766.75;5075254;28;19913;-80
2024/03/30 06:20:34;;;;;;;;;;;;;;;16.94;48.12;99769.75;5073940;28;20000;-81
2024/03/30 06:22:59;;;;;;;;;;;;;;;17.07;47.79;99769.69;5075103;28;19909;-81
2024/03/30 06:25:24;;;;;;;;;;;;;;;17.18;47.92;99767.41;5074906;28;19909;-81
2024/03/30 06:27:50;;;;;;;;;;;;;;;17.26;48.17;99767.13;5075192;28;20396;-81
2024/03/30 06:30:16;;;;;;;;;;;;;;;17.29;47.82;99759.50;5074966;28;19913;-79
2024/03/30 06:32:42;;;;;;;;;;;;;;;17.37;47.53;99769.09;5075370;28;19975;-80
2024/03/30 06:35:07;;;;;;;;;;;;;;;17.48;47.03;99773.75;5075210;28;19913;-80
2024/03/30 06:37:32;;;;;;;;;;;;;;;17.56;47.34;99770.00;5074942;28;19919;-81
2024/03/30 06:45:25;;;;;;;;;;;;;;;17.79;46.61;99768.38;5075023;28;19966;-81
2024/03/30 06:47:53;;;;;;;;;;;;;;;17.89;46.33;99767.91;5075036;28;19916;-80
2024/03/30 06:50:18;;;;;;;;;;;;;;;17.99;46.54;99764.72;5075063;28;19975;-81
2024/03/30 06:52:43;;;;;;;;;;;;;;;18.10;46.13;99769.34;5073272;28;20390;-81
2024/03/30 06:55:09;;;;;;;;;;;;;;;18.19;45.06;99759.19;5074689;28;19913;-81
2024/03/30 06:57:34;;;;;;;;;;;;;;;18.25;45.63;99760.97;5074626;28;20377;-81
2024/03/30 07:00:01;;;;;;;;;;;;;;;18.23;45.88;99763.03;5074699;28;19916;-81
2024/03/30 07:02:26;;;;;;;;;;;;;;;18.33;45.54;99763.34;5074234;28;19912;-81
2024/03/30 07:04:51;;;;;;;;;;;;;;;18.42;45.24;99760.13;5074460;28;19913;-81
2024/03/30 07:07:17;;;;;;;;;;;;;;;18.54;44.98;99759.38;5074447;28;19912;-81
2024/03/30 07:09:42;;;;;;;;;;;;;;;18.64;44.81;99760.56;5074440;28;19991;-81
2024/03/30 07:12:07;;;;;;;;;;;;;;;18.76;44.21;99752.56;5073168;28;19965;-81
2024/03/30 07:14:32;;;;;;;;;;;;;;;18.81;44.52;99755.41;5073268;28;19912;-81
2024/03/30 07:16:58;;;;;;;;;;;;;;;18.92;44.29;99762.66;5074414;28;19919;-81
2024/03/30 07:19:23;;;;;;;;;;;;;;;19.02;44.17;99765.59;5072968;28;19920;-80
2024/03/30 07:21:48;;;;;;;;;;;;;;;19.08;44.10;99766.53;5074489;28;20316;-81
2024/03/30 07:24:14;;;;;;;;;;;;;;;19.17;44.02;99777.75;5074246;28;19962;-81
2024/03/30 07:26:39;;;;;;;;;;;;;;;19.20;43.98;99777.28;5074169;28;20343;-81
2024/03/30 07:29:05;;;;;;;;;;;;;;;19.29;43.86;99786.63;5073515;28;19913;-81
2024/03/30 07:31:30;;;;;;;;;;;;;;;19.37;43.59;99783.66;5089734;28;20003;-81
2024/03/30 07:33:56;;;;;;;;;;;;;;;19.41;43.41;99784.81;5073701;28;19981;-81
2024/03/30 07:36:21;;;;;;;;;;;;;;;19.48;43.29;99785.53;5073686;28;20321;-81
2024/03/30 07:38:46;;;;;;;;;;;;;;;19.59;43.25;99782.09;5073727;28;19918;-80
2024/03/30 07:41:12;;;;;;;;;;;;;;;19.65;42.98;99772.31;5073647;28;19915;-81
2024/03/30 07:43:37;;;;;;;;;;;;;;;19.72;43.05;99780.22;5073619;28;20440;-81
2024/03/30 07:46:02;;;;;;;;;;;;;;;19.82;42.77;99775.13;5073630;28;19912;-81
2024/03/30 07:48:28;;;;;;;;;;;;;;;19.87;42.91;99773.38;5089171;28;19944;-81
2024/03/30 07:50:53;;;;;;;;;;;;;;;19.97;42.59;99780.81;5071845;28;20312;-81
2024/03/30 07:53:18;;;;;;;;;;;;;;;20.08;42.43;99776.53;5073394;28;19912;-81
2024/03/30 07:55:43;;;;;;;;;;;;;;;20.21;42.31;99776.28;5073391;28;19916;-79
2024/03/30 07:58:09;;;;;;;;;;;;;;;20.24;42.32;99776.63;5073108;28;20391;-81
2024/03/30 08:00:34;;;;;;;;;;;;;;;20.29;42.09;99784.78;5073240;28;19912;-81
2024/03/30 08:03:01;;;;;;;;;;;;;;;20.37;42.22;99782.78;5072600;28;19973;-81
2024/03/30 08:05:27;;;;;;;;;;;;;;;20.51;41.73;99779.66;5073087;28;20392;-80
2024/03/30 08:07:52;;;;;;;;;;;;;;;20.53;41.35;99779.41;5073195;28;19913;-81
2024/03/30 08:10:18;;;;;;;;;;;;;;;20.58;41.39;99784.88;5071839;28;19912;-80
2024/03/30 08:12:43;;;;;;;;;;;;;;;20.67;41.41;99779.94;5073183;28;20333;-79
2024/03/30 08:15:08;;;;;;;;;;;;;;;20.73;41.15;99776.31;5073062;28;20003;-81
2024/03/30 08:17:33;;;;;;;;;;;;;;;20.82;41.01;99773.03;5073101;28;20407;-79
2024/03/30 08:19:59;;;;;;;;;;;;;;;20.94;41.02;99764.94;5072961;28;20389;-80
2024/03/30 08:22:24;;;;;;;;;;;;;;;20.98;40.53;99767.97;5073000;28;19912;-81
2024/03/30 08:24:49;;;;;;;;;;;;;;;21.01;40.40;99762.94;5072771;28;19913;-81
2024/03/30 08:27:14;;;;;;;;;;;;;;;21.13;40.17;99755.63;5072902;28;19955;-81
2024/03/30 08:29:40;;;;;;;;;;;;;;;21.25;39.77;99761.78;5071506;28;19913;-81
2024/03/30 08:32:05;;;;;;;;;;;;;;;21.33;39.66;99759.75;5072522;28;19923;-79
2024/03/30 08:34:30;;;;;;;;;;;;;;;21.44;39.75;99766.91;5072528;28;19917;-80
2024/03/30 08:36:56;;;;;;;;;;;;;;;21.56;39.17;99768.50;5072634;28;20000;-81
2024/03/30 08:39:21;;;;;;;;;;;;;;;21.63;39.39;99762.97;5072433;28;19916;-80
2024/03/30 08:41:46;;;;;;;;;;;;;;;21.71;38.06;99757.19;5071040;28;19912;-81
2024/03/30 08:44:11;;;;;;;;;;;;;;;21.81;38.43;99745.75;5071478;28;19919;-81
2024/03/30 08:46:37;;;;;;;;;;;;;;;21.96;37.83;99750.56;5072518;28;19919;-79
2024/03/30 08:49:05;;;;;;;;;;;;;;;22.11;38.17;99746.22;5073250;28;20290;-79
2024/03/30 08:51:31;;;;;;;;;;;;;;;22.28;38.06;99748.88;5072030;28;19969;-81
2024/03/30 08:54:03;;;;;;;;;;;;;;;22.45;38.31;99752.34;5070955;28;20383;-81
2024/03/30 08:56:29;;;;;;;;;;;;;;;22.66;38.04;99739.13;5072208;28;19915;-82
2024/03/30 08:58:54;;;;;;;;;;;;;;;22.86;38.35;99739.38;5072281;28;19913;-80
2024/03/30 09:01:19;;;;;;;;;;;;;;;23.03;37.13;99733.88;5072364;28;19959;-80
2024/03/30 09:03:45;;;;;;;;;;;;;;;23.18;37.88;99730.53;5072311;28;19993;-80
2024/03/30 09:06:10;;;;;;;;;;;;;;;23.28;36.60;99722.56;5087532;28;19980;-80
2024/03/30 09:08:35;;;;;;;;;;;;;;;23.42;36.65;99726.44;5070975;28;20282;-80
2024/03/30 09:11:00;;;;;;;;;;;;;;;23.62;35.64;99732.00;5072006;28;19923;-80
2024/03/30 09:13:26;;;;;;;;;;;;;;;23.82;35.54;99717.88;5072269;28;20358;-80
2024/03/30 09:15:51;;;;;;;;;;;;;;;24.01;35.60;99727.16;5071320;28;19912;-80
2024/03/30 09:18:16;;;;;;;;;;;;;;;24.24;35.13;99723.22;5071778;28;20388;-80
2024/03/30 09:20:42;;;;;;;;;;;;;;;24.42;34.92;99710.38;5071991;28;19912;-80
2024/03/30 09:23:07;;;;;;;;;;;;;;;24.66;35.76;99711.53;5071899;28;20385;-79
2024/03/30 09:25:32;;;;;;;;;;;;;;;24.84;34.07;99708.34;5087178;28;19912;-79
2024/03/30 09:27:58;;;;;;;;;;;;;;;24.98;34.79;99705.97;5071923;28;20380;-79
2024/03/30 09:30:23;;;;;;;;;;;;;;;25.14;34.22;99699.50;5070528;28;19912;-80
2024/03/30 09:32:48;;;;;;;;;;;;;;;25.24;35.09;99693.28;5071977;28;19940;-80
2024/03/30 09:35:13;;;;;;;;;;;;;;;25.45;32.19;99689.50;5072028;28;19948;-80
2024/03/30 09:37:39;;;;;;;;;;;;;;;25.61;34.30;99684.88;5071009;28;19909;-80
2024/03/30 09:40:05;;;;;;;;;;;;;;;25.81;32.80;99684.06;5071750;28;19940;-79
2024/03/30 09:42:31;;;;;;;;;;;;;;;26.02;33.97;99674.81;5071431;28;20405;-81
2024/03/30 09:44:57;;;;;;;;;;;;;;;26.21;32.95;99662.28;5071723;28;19916;-81
2024/03/30 09:47:23;;;;;;;;;;;;;;;26.21;33.75;99656.88;5071560;28;20026;-80
2024/03/30 09:49:50;;;;;;;;;;;;;;;26.25;32.50;99652.53;5071763;28;20491;-80
2024/03/30 09:52:16;;;;;;;;;;;;;;;26.40;32.73;99648.16;5070460;28;19921;-79
2024/03/30 09:54:42;;;;;;;;;;;;;;;26.48;32.34;99651.06;5070202;28;19939;-80
2024/03/30 09:57:07;;;;;;;;;;;;;;;26.59;30.53;99641.00;5070349;28;19958;-80
2024/03/30 09:59:33;;;;;;;;;;;;;;;26.66;31.67;99643.38;5070248;28;19912;-80
2024/03/30 10:01:58;;;;;;;;;;;;;;;26.73;31.49;99639.25;5070505;28;19963;-79
2024/03/30 10:04:23;;;;;;;;;;;;;;;26.95;31.41;99635.34;5071643;28;20003;-80
2024/03/30 10:06:51;;;;;;;;;;;;;;;27.08;30.72;99632.00;5072015;28;19917;-80
2024/03/30 10:09:18;;;;;;;;;;;;;;;27.19;29.14;99634.34;5072467;28;19919;-80
2024/03/30 10:11:45;;;;;;;;;;;;;;;27.15;29.30;99627.88;5069748;28;19946;-81
2024/03/30 10:14:26;;;;;;;;;;;;;;;27.11;28.61;99626.81;5071433;28;19912;-79
2024/03/30 10:16:52;;;;;;;;;;;;;;;27.30;28.89;99628.81;5071339;28;19917;-80
2024/03/30 10:19:17;;;;;;;;;;;;;;;27.45;28.15;99621.34;5071122;28;20373;-80
2024/03/30 10:21:43;;;;;;;;;;;;;;;27.69;28.10;99620.59;5071243;28;19954;-81
2024/03/30 10:24:09;;;;;;;;;;;;;;;27.92;27.71;99617.06;5071430;28;19999;-81
2024/03/30 10:26:38;;;;;;;;;;;;;;;28.26;28.54;99611.50;5072714;28;19975;-80
2024/03/30 10:29:06;;;;;;;;;;;;;;;28.32;27.21;99604.91;5073573;28;19946;-80
2024/03/30 10:31:32;;;;;;;;;;;;;;;28.40;27.01;99609.69;5075202;28;19917;-79
2024/03/30 10:34:00;;;;;;;;;;;;;;;28.53;26.58;99607.31;5074967;28;19913;-80
2024/03/30 10:36:28;;;;;;;;;;;;;;;28.65;26.16;99605.78;5074957;28;19957;-80
2024/03/30 10:38:56;;;;;;;;;;;;;;;28.86;26.08;99600.03;5074695;28;19913;-80
2024/03/30 10:41:24;;;;;;;;;;;;;;;29.05;26.09;99593.47;5073052;28;20018;-80
2024/03/30 10:43:50;;;;;;;;;;;;;;;28.98;25.54;99590.31;5074843;28;20065;-80
2024/03/30 10:46:15;;;;;;;;;;;;;;;29.04;25.62;99586.41;5074669;28;20379;-79
2024/03/30 10:48:40;;;;;;;;;;;;;;;29.26;24.96;99577.59;5073274;28;19912;-78
2024/03/30 10:51:06;;;;;;;;;;;;;;;29.43;25.56;99574.31;5074533;28;19917;-80
2024/03/30 10:53:32;;;;;;;;;;;;;;;29.53;25.36;99576.03;5074559;28;20399;-80
2024/03/30 10:55:57;;;;;;;;;;;;;;;29.68;24.20;99578.44;5074428;28;19912;-80
2024/03/30 10:58:23;;;;;;;;;;;;;;;29.82;24.51;99554.75;5074292;28;19938;-79
2024/03/30 11:00:48;;;;;;;;;;;;;;;29.88;22.94;99559.00;5074325;28;19966;-79
2024/03/30 11:03:16;;;;;;;;;;;;;;;29.84;23.27;99558.00;5073062;28;19924;-80
2024/03/30 11:05:41;;;;;;;;;;;;;;;30.08;22.25;99546.88;5074000;28;20316;-80
2024/03/30 11:08:08;;;;;;;;;;;;;;;30.08;23.24;99549.59;5074544;28;19913;-80
2024/03/30 11:10:33;;;;;;;;;;;;;;;30.09;22.45;99553.94;5074204;28;20003;-80
2024/03/30 11:12:59;;;;;;;;;;;;;;;30.34;21.90;99560.72;5074244;28;19967;-81
2024/03/30 11:15:26;;;;;;;;;;;;;;;30.40;20.17;99545.84;5073995;28;20015;-79
2024/03/30 11:17:58;;;;;;;;;;;;;;;30.49;22.40;99540.50;5072596;28;19958;-80
2024/03/30 11:20:31;;;;;;;;;;;;;;;30.62;22.37;99534.22;5072858;28;19912;-79
2024/03/30 11:23:17;;;;;;;;;;;;;;;30.65;21.30;99542.56;5074133;28;19912;-79
2024/03/30 11:25:47;;;;;;;;;;;;;;;30.82;21.73;99532.88;5074038;28;19916;-80
2024/03/30 11:28:17;;;;;;;;;;;;;;;30.72;22.45;99520.31;5075060;28;19926;-80
2024/03/30 11:30:58;;;;;;;;;;;;;;;30.73;21.81;99521.94;5073440;28;19921;-80
2024/03/30 11:33:33;;;;;;;;;;;;;;;30.83;21.85;99526.31;5073589;28;20355;-80
2024/03/30 11:36:15;;;;;;;;;;;;;;;30.98;21.62;99509.53;5073586;28;19936;-80
2024/03/30 11:38:45;;;;;;;;;;;;;;;30.98;22.28;99518.53;5072826;28;19913;-80
2024/03/30 11:41:11;;;;;;;;;;;;;;;31.19;22.10;99512.56;5089179;28;19908;-80
2024/03/30 11:43:39;;;;;;;;;;;;;;;31.21;21.65;99511.16;5073407;28;19920;-80
2024/03/30 11:46:05;;;;;;;;;;;;;;;31.31;20.81;99510.06;5073311;28;19913;-80
2024/03/30 11:48:31;;;;;;;;;;;;;;;31.44;21.32;99508.34;5073667;28;20009;-80
2024/03/30 11:50:56;;;;;;;;;;;;;;;31.53;20.90;99501.78;5073528;28;19986;-79
2024/03/30 11:53:21;;;;;;;;;;;;;;;31.57;20.75;99499.22;5072085;28;19919;-79
2024/03/30 11:55:50;;;;;;;;;;;;;;;31.51;21.23;99490.38;5073284;28;19912;-79
2024/03/30 11:58:23;;;;;;;;;;;;;;;31.17;20.85;99491.03;5073270;28;19912;-80
2024/03/30 12:00:48;;;;;;;;;;;;;;;31.32;20.98;99492.56;5071927;28;19995;-79
2024/03/30 12:03:15;;;;;;;;;;;;;;;31.36;21.16;99490.00;5073131;28;19971;-80
2024/03/30 12:05:40;;;;;;;;;;;;;;;31.25;21.02;99476.66;5071799;28;19917;-80
2024/03/30 12:08:08;;;;;;;;;;;;;;;31.22;20.77;99479.22;5072014;28;20007;-80
2024/03/30 12:10:45;;;;;;;;;;;;;;;31.05;20.95;99470.91;5071724;28;19919;-80
2024/03/30 12:13:10;;;;;;;;;;;;;;;30.81;21.20;99463.94;5071757;28;19917;-79
2024/03/30 12:15:35;;;;;;;;;;;;;;;30.75;20.98;99458.91;5073152;28;20373;-80
2024/03/30 12:18:01;;;;;;;;;;;;;;;30.52;21.25;99463.59;5073065;28;19913;-80
2024/03/30 12:20:26;;;;;;;;;;;;;;;30.51;21.61;99454.59;5071702;28;20305;-78
2024/03/30 12:22:53;;;;;;;;;;;;;;;30.38;20.74;99452.72;5073129;28;19912;-81
2024/03/30 12:25:20;;;;;;;;;;;;;;;29.83;21.67;99365.84;5071634;28;19913;-79
2024/03/30 12:27:45;;;;;;;;;;;;;;;30.28;20.35;99455.72;5071615;28;19965;-79
2024/03/30 12:30:11;;;;;;;;;;;;;;;30.20;21.40;99446.38;5073000;28;19916;-80
2024/03/30 12:32:36;;;;;;;;;;;;;;;30.12;21.60;99440.88;5072961;28;19916;-80
2024/03/30 12:35:02;;;;;;;;;;;;;;;30.09;21.56;99441.47;5072567;28;19912;-81
2024/03/30 12:37:27;;;;;;;;;;;;;;;30.03;21.45;99443.53;5071333;28;19920;-80
2024/03/30 12:39:53;;;;;;;;;;;;;;;30.03;21.21;99438.06;5072465;28;19912;-79
2024/03/30 12:42:19;;;;;;;;;;;;;;;30.04;21.67;99442.41;5072803;28;19913;-80
2024/03/30 12:44:44;;;;;;;;;;;;;;;30.00;21.39;99427.78;5071437;28;19913;-78
2024/03/30 12:47:11;;;;;;;;;;;;;;;29.97;20.93;99423.75;5072880;28;20057;-80
2024/03/30 12:49:36;;;;;;;;;;;;;;;30.06;21.76;99426.56;5074094;28;20369;-79